sensor_id;sensor_type;location;lat;lon;timestamp;P1;P2;P0
55591;PMS5003;41454;53.396;-1.510;2023-01-20T00:00:20;5;5;
55591;PMS5003;41454;53.396;-1.510;2023-01-20T00:02:47;4;4;
55591;PMS5003;41454;53.396;-1.510;2023-01-20T00:05:14;4;4;
55591;PMS5003;41454;53.396;-1.510;2023-01-20T00:07:42;7;7;
55591;PMS5003;41454;53.396;-1.510;2023-01-20T00:10:09;5;5;
55591;PMS5003;41454;53.396;-1.510;2023-01-20T00:12:36;6;5;
55591;PMS5003;41454;53.396;-1.510;2023-01-20T00:15:04;5;5;
55591;PMS5003;41454;53.396;-1.510;2023-01-20T00:17:32;4;4;
55591;PMS5003;41454;53.396;-1.510;2023-01-20T00:19:59;4;4;
55591;PMS5003;41454;53.396;-1.510;2023-01-20T00:22:26;3;3;
55591;PMS5003;41454;53.396;-1.510;2023-01-20T00:24:52;3;3;
55591;PMS5003;41454;53.396;-1.510;2023-01-20T00:27:20;4;4;
55591;PMS5003;41454;53.396;-1.510;2023-01-20T00:29:48;3;2;
55591;PMS5003;41454;53.396;-1.510;2023-01-20T00:32:16;3;3;
55591;PMS5003;41454;53.396;-1.510;2023-01-20T00:34:44;3;3;
55591;PMS5003;41454;53.396;-1.510;2023-01-20T00:37:11;2;2;
55591;PMS5003;41454;53.396;-1.510;2023-01-20T00:39:38;4;3;
55591;PMS5003;41454;53.396;-1.510;2023-01-20T00:42:05;2;2;
55591;PMS5003;41454;53.396;-1.510;2023-01-20T00:44:32;4;3;
55591;PMS5003;41454;53.396;-1.510;2023-01-20T00:46:59;4;3;
55591;PMS5003;41454;53.396;-1.510;2023-01-20T00:49:25;5;5;
55591;PMS5003;41454;53.396;-1.510;2023-01-20T00:51:52;4;3;
55591;PMS5003;41454;53.396;-1.510;2023-01-20T00:54:20;5;4;
55591;PMS5003;41454;53.396;-1.510;2023-01-20T00:56:46;3;3;
55591;PMS5003;41454;53.396;-1.510;2023-01-20T00:59:13;4;3;
55591;PMS5003;41454;53.396;-1.510;2023-01-20T01:01:41;3;3;
55591;PMS5003;41454;53.396;-1.510;2023-01-20T01:04:07;3;3;
55591;PMS5003;41454;53.396;-1.510;2023-01-20T01:06:34;2;2;
55591;PMS5003;41454;53.396;-1.510;2023-01-20T01:09:02;3;3;
55591;PMS5003;41454;53.396;-1.510;2023-01-20T01:11:29;3;2;
55591;PMS5003;41454;53.396;-1.510;2023-01-20T01:13:57;2;2;
55591;PMS5003;41454;53.396;-1.510;2023-01-20T01:16:23;3;2;
55591;PMS5003;41454;53.396;-1.510;2023-01-20T01:18:51;3;3;
55591;PMS5003;41454;53.396;-1.510;2023-01-20T01:21:20;3;3;
55591;PMS5003;41454;53.396;-1.510;2023-01-20T01:23:48;5;4;
55591;PMS5003;41454;53.396;-1.510;2023-01-20T01:26:17;5;5;
55591;PMS5003;41454;53.396;-1.510;2023-01-20T01:28:46;4;4;
55591;PMS5003;41454;53.396;-1.510;2023-01-20T01:31:14;4;2;
55591;PMS5003;41454;53.396;-1.510;2023-01-20T01:33:42;3;3;
55591;PMS5003;41454;53.396;-1.510;2023-01-20T01:36:11;3;3;
55591;PMS5003;41454;53.396;-1.510;2023-01-20T01:38:39;3;3;
55591;PMS5003;41454;53.396;-1.510;2023-01-20T01:41:06;6;4;
55591;PMS5003;41454;53.396;-1.510;2023-01-20T01:43:36;5;4;
55591;PMS5003;41454;53.396;-1.510;2023-01-20T01:46:04;4;3;
55591;PMS5003;41454;53.396;-1.510;2023-01-20T01:48:32;3;3;
55591;PMS5003;41454;53.396;-1.510;2023-01-20T01:51:03;2;2;
55591;PMS5003;41454;53.396;-1.510;2023-01-20T01:53:35;1;1;
55591;PMS5003;41454;53.396;-1.510;2023-01-20T01:56:07;4;4;
55591;PMS5003;41454;53.396;-1.510;2023-01-20T01:58:38;3;3;
55591;PMS5003;41454;53.396;-1.510;2023-01-20T02:01:10;3;3;
55591;PMS5003;41454;53.396;-1.510;2023-01-20T02:03:40;2;2;
55591;PMS5003;41454;53.396;-1.510;2023-01-20T02:06:10;2;2;
55591;PMS5003;41454;53.396;-1.510;2023-01-20T02:08:38;3;3;
55591;PMS5003;41454;53.396;-1.510;2023-01-20T02:11:07;3;3;
55591;PMS5003;41454;53.396;-1.510;2023-01-20T02:13:33;3;3;
55591;PMS5003;41454;53.396;-1.510;2023-01-20T02:16:04;2;2;
55591;PMS5003;41454;53.396;-1.510;2023-01-20T02:18:43;2;2;
55591;PMS5003;41454;53.396;-1.510;2023-01-20T02:21:59;2;2;
55591;PMS5003;41454;53.396;-1.510;2023-01-20T02:24:42;4;3;
55591;PMS5003;41454;53.396;-1.510;2023-01-20T02:28:06;3;3;
55591;PMS5003;41454;53.396;-1.510;2023-01-20T02:30:56;4;4;
55591;PMS5003;41454;53.396;-1.510;2023-01-20T02:33:35;2;2;
55591;PMS5003;41454;53.396;-1.510;2023-01-20T02:36:08;5;3;
55591;PMS5003;41454;53.396;-1.510;2023-01-20T02:38:39;3;3;
55591;PMS5003;41454;53.396;-1.510;2023-01-20T02:41:12;3;3;
55591;PMS5003;41454;53.396;-1.510;2023-01-20T02:43:47;3;2;
55591;PMS5003;41454;53.396;-1.510;2023-01-20T02:46:24;2;2;
55591;PMS5003;41454;53.396;-1.510;2023-01-20T02:48:58;3;3;
55591;PMS5003;41454;53.396;-1.510;2023-01-20T02:51:35;2;2;
55591;PMS5003;41454;53.396;-1.510;2023-01-20T02:54:08;2;2;
55591;PMS5003;41454;53.396;-1.510;2023-01-20T02:56:40;4;4;
55591;PMS5003;41454;53.396;-1.510;2023-01-20T02:59:09;4;2;
55591;PMS5003;41454;53.396;-1.510;2023-01-20T03:01:39;2;2;
55591;PMS5003;41454;53.396;-1.510;2023-01-20T03:04:08;2;2;
55591;PMS5003;41454;53.396;-1.510;2023-01-20T03:06:39;7;3;
55591;PMS5003;41454;53.396;-1.510;2023-01-20T03:09:13;3;3;
55591;PMS5003;41454;53.396;-1.510;2023-01-20T03:11:44;1;1;
55591;PMS5003;41454;53.396;-1.510;2023-01-20T03:14:16;3;3;
55591;PMS5003;41454;53.396;-1.510;2023-01-20T03:16:44;2;2;
55591;PMS5003;41454;53.396;-1.510;2023-01-20T03:19:11;3;3;
55591;PMS5003;41454;53.396;-1.510;2023-01-20T03:21:38;2;2;
55591;PMS5003;41454;53.396;-1.510;2023-01-20T03:24:05;4;4;
55591;PMS5003;41454;53.396;-1.510;2023-01-20T03:26:33;2;2;
55591;PMS5003;41454;53.396;-1.510;2023-01-20T03:29:02;3;3;
55591;PMS5003;41454;53.396;-1.510;2023-01-20T03:31:33;2;2;
55591;PMS5003;41454;53.396;-1.510;2023-01-20T03:34:03;3;3;
55591;PMS5003;41454;53.396;-1.510;2023-01-20T03:36:33;3;3;
55591;PMS5003;41454;53.396;-1.510;2023-01-20T03:39:01;2;2;
55591;PMS5003;41454;53.396;-1.510;2023-01-20T03:41:39;4;4;
55591;PMS5003;41454;53.396;-1.510;2023-01-20T03:44:16;3;3;
55591;PMS5003;41454;53.396;-1.510;2023-01-20T03:46:51;3;3;
55591;PMS5003;41454;53.396;-1.510;2023-01-20T03:49:25;3;3;
55591;PMS5003;41454;53.396;-1.510;2023-01-20T03:52:00;3;3;
55591;PMS5003;41454;53.396;-1.510;2023-01-20T03:54:32;3;3;
55591;PMS5003;41454;53.396;-1.510;2023-01-20T03:57:05;3;3;
55591;PMS5003;41454;53.396;-1.510;2023-01-20T03:59:35;3;3;
55591;PMS5003;41454;53.396;-1.510;2023-01-20T04:02:06;3;3;
55591;PMS5003;41454;53.396;-1.510;2023-01-20T04:04:35;3;3;
55591;PMS5003;41454;53.396;-1.510;2023-01-20T04:07:04;3;3;
55591;PMS5003;41454;53.396;-1.510;2023-01-20T04:09:34;2;2;
55591;PMS5003;41454;53.396;-1.510;2023-01-20T04:12:05;3;3;
55591;PMS5003;41454;53.396;-1.510;2023-01-20T04:14:33;3;3;
55591;PMS5003;41454;53.396;-1.510;2023-01-20T04:17:01;3;2;
55591;PMS5003;41454;53.396;-1.510;2023-01-20T04:19:30;1;1;
55591;PMS5003;41454;53.396;-1.510;2023-01-20T04:21:59;3;3;
55591;PMS5003;41454;53.396;-1.510;2023-01-20T04:24:32;3;2;
55591;PMS5003;41454;53.396;-1.510;2023-01-20T04:27:03;2;2;
55591;PMS5003;41454;53.396;-1.510;2023-01-20T04:29:30;1;1;
55591;PMS5003;41454;53.396;-1.510;2023-01-20T04:31:58;1;1;
55591;PMS5003;41454;53.396;-1.510;2023-01-20T04:34:25;3;2;
55591;PMS5003;41454;53.396;-1.510;2023-01-20T04:36:52;3;2;
55591;PMS5003;41454;53.396;-1.510;2023-01-20T04:39:19;2;2;
55591;PMS5003;41454;53.396;-1.510;2023-01-20T04:41:47;1;1;
55591;PMS5003;41454;53.396;-1.510;2023-01-20T04:44:14;2;2;
55591;PMS5003;41454;53.396;-1.510;2023-01-20T04:46:41;2;2;
55591;PMS5003;41454;53.396;-1.510;2023-01-20T04:49:08;2;1;
55591;PMS5003;41454;53.396;-1.510;2023-01-20T04:51:35;2;2;
55591;PMS5003;41454;53.396;-1.510;2023-01-20T04:54:01;2;2;
55591;PMS5003;41454;53.396;-1.510;2023-01-20T04:56:29;2;2;
55591;PMS5003;41454;53.396;-1.510;2023-01-20T04:58:57;1;1;
55591;PMS5003;41454;53.396;-1.510;2023-01-20T05:01:24;1;1;
55591;PMS5003;41454;53.396;-1.510;2023-01-20T05:03:51;2;2;
55591;PMS5003;41454;53.396;-1.510;2023-01-20T05:06:19;3;2;
55591;PMS5003;41454;53.396;-1.510;2023-01-20T05:08:45;2;2;
55591;PMS5003;41454;53.396;-1.510;2023-01-20T05:11:12;4;2;
55591;PMS5003;41454;53.396;-1.510;2023-01-20T05:13:39;4;2;
55591;PMS5003;41454;53.396;-1.510;2023-01-20T05:16:11;3;2;
55591;PMS5003;41454;53.396;-1.510;2023-01-20T05:18:38;2;2;
55591;PMS5003;41454;53.396;-1.510;2023-01-20T05:21:05;3;3;
55591;PMS5003;41454;53.396;-1.510;2023-01-20T05:23:33;2;2;
55591;PMS5003;41454;53.396;-1.510;2023-01-20T05:26:00;2;2;
55591;PMS5003;41454;53.396;-1.510;2023-01-20T05:28:28;3;3;
55591;PMS5003;41454;53.396;-1.510;2023-01-20T05:30:54;1;1;
55591;PMS5003;41454;53.396;-1.510;2023-01-20T05:33:21;1;1;
55591;PMS5003;41454;53.396;-1.510;2023-01-20T05:35:48;2;2;
55591;PMS5003;41454;53.396;-1.510;2023-01-20T05:38:14;2;2;
55591;PMS5003;41454;53.396;-1.510;2023-01-20T05:40:41;2;2;
55591;PMS5003;41454;53.396;-1.510;2023-01-20T05:43:08;3;3;
55591;PMS5003;41454;53.396;-1.510;2023-01-20T05:45:35;4;3;
55591;PMS5003;41454;53.396;-1.510;2023-01-20T05:48:04;4;3;
55591;PMS5003;41454;53.396;-1.510;2023-01-20T05:51:05;2;2;
55591;PMS5003;41454;53.396;-1.510;2023-01-20T05:53:34;3;3;
55591;PMS5003;41454;53.396;-1.510;2023-01-20T05:56:08;4;3;
55591;PMS5003;41454;53.396;-1.510;2023-01-20T05:58:36;2;2;
55591;PMS5003;41454;53.396;-1.510;2023-01-20T06:01:11;4;3;
55591;PMS5003;41454;53.396;-1.510;2023-01-20T06:03:39;3;1;
55591;PMS5003;41454;53.396;-1.510;2023-01-20T06:06:06;2;2;
55591;PMS5003;41454;53.396;-1.510;2023-01-20T06:08:35;2;2;
55591;PMS5003;41454;53.396;-1.510;2023-01-20T06:11:02;1;1;
55591;PMS5003;41454;53.396;-1.510;2023-01-20T06:13:30;2;1;
55591;PMS5003;41454;53.396;-1.510;2023-01-20T06:15:57;2;2;
55591;PMS5003;41454;53.396;-1.510;2023-01-20T06:18:23;1;1;
55591;PMS5003;41454;53.396;-1.510;2023-01-20T06:20:51;2;2;
55591;PMS5003;41454;53.396;-1.510;2023-01-20T06:23:22;1;1;
55591;PMS5003;41454;53.396;-1.510;2023-01-20T06:25:56;3;2;
55591;PMS5003;41454;53.396;-1.510;2023-01-20T06:28:24;1;1;
55591;PMS5003;41454;53.396;-1.510;2023-01-20T06:30:51;1;1;
55591;PMS5003;41454;53.396;-1.510;2023-01-20T06:33:24;3;3;
55591;PMS5003;41454;53.396;-1.510;2023-01-20T06:35:52;1;1;
55591;PMS5003;41454;53.396;-1.510;2023-01-20T06:38:20;3;3;
55591;PMS5003;41454;53.396;-1.510;2023-01-20T06:40:47;3;3;
55591;PMS5003;41454;53.396;-1.510;2023-01-20T06:43:15;2;2;
55591;PMS5003;41454;53.396;-1.510;2023-01-20T06:45:43;3;3;
55591;PMS5003;41454;53.396;-1.510;2023-01-20T06:48:09;5;4;
55591;PMS5003;41454;53.396;-1.510;2023-01-20T06:50:37;4;4;
55591;PMS5003;41454;53.396;-1.510;2023-01-20T06:53:04;3;3;
55591;PMS5003;41454;53.396;-1.510;2023-01-20T06:55:30;4;4;
55591;PMS5003;41454;53.396;-1.510;2023-01-20T06:57:58;5;5;
55591;PMS5003;41454;53.396;-1.510;2023-01-20T07:00:24;5;5;
55591;PMS5003;41454;53.396;-1.510;2023-01-20T07:02:51;4;4;
55591;PMS5003;41454;53.396;-1.510;2023-01-20T07:05:18;4;3;
55591;PMS5003;41454;53.396;-1.510;2023-01-20T07:07:45;5;4;
55591;PMS5003;41454;53.396;-1.510;2023-01-20T07:10:12;4;4;
55591;PMS5003;41454;53.396;-1.510;2023-01-20T07:12:40;3;3;
55591;PMS5003;41454;53.396;-1.510;2023-01-20T07:15:07;4;3;
55591;PMS5003;41454;53.396;-1.510;2023-01-20T07:17:35;1;1;
55591;PMS5003;41454;53.396;-1.510;2023-01-20T07:20:02;1;1;
55591;PMS5003;41454;53.396;-1.510;2023-01-20T07:22:29;0;0;
55591;PMS5003;41454;53.396;-1.510;2023-01-20T07:24:56;1;1;
55591;PMS5003;41454;53.396;-1.510;2023-01-20T07:27:23;2;1;
55591;PMS5003;41454;53.396;-1.510;2023-01-20T07:29:50;2;2;
55591;PMS5003;41454;53.396;-1.510;2023-01-20T07:32:17;1;1;
55591;PMS5003;41454;53.396;-1.510;2023-01-20T07:34:44;1;1;
55591;PMS5003;41454;53.396;-1.510;2023-01-20T07:37:10;1;1;
55591;PMS5003;41454;53.396;-1.510;2023-01-20T07:39:37;2;2;
55591;PMS5003;41454;53.396;-1.510;2023-01-20T07:42:05;5;5;
55591;PMS5003;41454;53.396;-1.510;2023-01-20T07:44:32;21;21;
55591;PMS5003;41454;53.396;-1.510;2023-01-20T07:47:00;9;9;
55591;PMS5003;41454;53.396;-1.510;2023-01-20T07:49:27;7;6;
55591;PMS5003;41454;53.396;-1.510;2023-01-20T07:51:55;6;6;
55591;PMS5003;41454;53.396;-1.510;2023-01-20T07:54:22;4;2;
55591;PMS5003;41454;53.396;-1.510;2023-01-20T07:56:49;25;20;
55591;PMS5003;41454;53.396;-1.510;2023-01-20T07:59:16;24;22;
55591;PMS5003;41454;53.396;-1.510;2023-01-20T08:01:43;13;13;
55591;PMS5003;41454;53.396;-1.510;2023-01-20T08:04:10;9;6;
55591;PMS5003;41454;53.396;-1.510;2023-01-20T08:06:37;8;8;
55591;PMS5003;41454;53.396;-1.510;2023-01-20T08:09:04;4;4;
55591;PMS5003;41454;53.396;-1.510;2023-01-20T08:11:35;8;8;
55591;PMS5003;41454;53.396;-1.510;2023-01-20T08:14:01;10;10;
55591;PMS5003;41454;53.396;-1.510;2023-01-20T08:16:29;8;8;
55591;PMS5003;41454;53.396;-1.510;2023-01-20T08:18:56;32;32;
55591;PMS5003;41454;53.396;-1.510;2023-01-20T08:21:24;10;10;
55591;PMS5003;41454;53.396;-1.510;2023-01-20T08:23:53;26;22;
55591;PMS5003;41454;53.396;-1.510;2023-01-20T08:26:21;19;16;
55591;PMS5003;41454;53.396;-1.510;2023-01-20T08:28:48;3;3;
55591;PMS5003;41454;53.396;-1.510;2023-01-20T08:31:17;11;10;
55591;PMS5003;41454;53.396;-1.510;2023-01-20T08:33:46;45;44;
55591;PMS5003;41454;53.396;-1.510;2023-01-20T08:36:18;27;27;
55591;PMS5003;41454;53.396;-1.510;2023-01-20T08:38:47;20;20;
55591;PMS5003;41454;53.396;-1.510;2023-01-20T08:41:15;10;9;
55591;PMS5003;41454;53.396;-1.510;2023-01-20T08:43:45;16;16;
55591;PMS5003;41454;53.396;-1.510;2023-01-20T08:46:13;4;3;
55591;PMS5003;41454;53.396;-1.510;2023-01-20T08:48:42;3;3;
55591;PMS5003;41454;53.396;-1.510;2023-01-20T08:51:10;2;2;
55591;PMS5003;41454;53.396;-1.510;2023-01-20T08:53:39;3;3;
55591;PMS5003;41454;53.396;-1.510;2023-01-20T08:56:08;3;3;
55591;PMS5003;41454;53.396;-1.510;2023-01-20T08:58:36;1;1;
55591;PMS5003;41454;53.396;-1.510;2023-01-20T09:01:07;2;2;
55591;PMS5003;41454;53.396;-1.510;2023-01-20T09:03:35;1;1;
55591;PMS5003;41454;53.396;-1.510;2023-01-20T09:06:03;2;2;
55591;PMS5003;41454;53.396;-1.510;2023-01-20T09:08:31;0;0;
55591;PMS5003;41454;53.396;-1.510;2023-01-20T09:11:00;1;1;
55591;PMS5003;41454;53.396;-1.510;2023-01-20T09:13:30;1;1;
55591;PMS5003;41454;53.396;-1.510;2023-01-20T09:15:57;2;2;
55591;PMS5003;41454;53.396;-1.510;2023-01-20T09:18:24;1;1;
55591;PMS5003;41454;53.396;-1.510;2023-01-20T09:20:52;2;2;
55591;PMS5003;41454;53.396;-1.510;2023-01-20T09:23:18;2;2;
55591;PMS5003;41454;53.396;-1.510;2023-01-20T09:25:45;2;2;
55591;PMS5003;41454;53.396;-1.510;2023-01-20T09:28:12;1;1;
55591;PMS5003;41454;53.396;-1.510;2023-01-20T09:30:39;3;2;
55591;PMS5003;41454;53.396;-1.510;2023-01-20T09:33:07;0;0;
55591;PMS5003;41454;53.396;-1.510;2023-01-20T09:35:35;1;1;
55591;PMS5003;41454;53.396;-1.510;2023-01-20T09:38:02;2;2;
55591;PMS5003;41454;53.396;-1.510;2023-01-20T09:40:33;0;0;
55591;PMS5003;41454;53.396;-1.510;2023-01-20T09:43:14;0;0;
55591;PMS5003;41454;53.396;-1.510;2023-01-20T09:45:56;3;0;
55591;PMS5003;41454;53.396;-1.510;2023-01-20T09:48:34;1;1;
55591;PMS5003;41454;53.396;-1.510;2023-01-20T09:51:10;2;2;
55591;PMS5003;41454;53.396;-1.510;2023-01-20T09:53:46;2;2;
55591;PMS5003;41454;53.396;-1.510;2023-01-20T09:56:20;1;1;
55591;PMS5003;41454;53.396;-1.510;2023-01-20T09:58:54;1;1;
55591;PMS5003;41454;53.396;-1.510;2023-01-20T10:01:26;1;1;
55591;PMS5003;41454;53.396;-1.510;2023-01-20T10:04:00;2;2;
55591;PMS5003;41454;53.396;-1.510;2023-01-20T10:06:36;1;1;
55591;PMS5003;41454;53.396;-1.510;2023-01-20T10:09:08;1;1;
55591;PMS5003;41454;53.396;-1.510;2023-01-20T10:11:43;2;2;
55591;PMS5003;41454;53.396;-1.510;2023-01-20T10:14:14;1;1;
55591;PMS5003;41454;53.396;-1.510;2023-01-20T10:16:49;1;1;
55591;PMS5003;41454;53.396;-1.510;2023-01-20T10:19:23;2;1;
55591;PMS5003;41454;53.396;-1.510;2023-01-20T10:21:57;1;1;
55591;PMS5003;41454;53.396;-1.510;2023-01-20T10:24:33;1;1;
55591;PMS5003;41454;53.396;-1.510;2023-01-20T10:27:04;1;1;
55591;PMS5003;41454;53.396;-1.510;2023-01-20T10:29:32;1;1;
55591;PMS5003;41454;53.396;-1.510;2023-01-20T10:32:02;1;1;
55591;PMS5003;41454;53.396;-1.510;2023-01-20T10:34:37;1;1;
55591;PMS5003;41454;53.396;-1.510;2023-01-20T10:37:10;2;2;
55591;PMS5003;41454;53.396;-1.510;2023-01-20T10:39:41;5;4;
55591;PMS5003;41454;53.396;-1.510;2023-01-20T10:42:14;3;3;
55591;PMS5003;41454;53.396;-1.510;2023-01-20T10:44:43;1;1;
55591;PMS5003;41454;53.396;-1.510;2023-01-20T10:47:17;1;1;
55591;PMS5003;41454;53.396;-1.510;2023-01-20T10:50:29;0;0;
55591;PMS5003;41454;53.396;-1.510;2023-01-20T10:53:11;1;1;
55591;PMS5003;41454;53.396;-1.510;2023-01-20T10:55:52;1;1;
55591;PMS5003;41454;53.396;-1.510;2023-01-20T10:58:30;2;1;
55591;PMS5003;41454;53.396;-1.510;2023-01-20T11:01:02;0;0;
55591;PMS5003;41454;53.396;-1.510;2023-01-20T11:03:33;2;2;
55591;PMS5003;41454;53.396;-1.510;2023-01-20T11:06:02;3;2;
55591;PMS5003;41454;53.396;-1.510;2023-01-20T11:08:32;3;3;
55591;PMS5003;41454;53.396;-1.510;2023-01-20T11:11:00;1;1;
55591;PMS5003;41454;53.396;-1.510;2023-01-20T11:13:35;1;1;
55591;PMS5003;41454;53.396;-1.510;2023-01-20T11:16:03;1;1;
55591;PMS5003;41454;53.396;-1.510;2023-01-20T11:18:39;2;2;
55591;PMS5003;41454;53.396;-1.510;2023-01-20T11:21:07;1;1;
55591;PMS5003;41454;53.396;-1.510;2023-01-20T11:23:38;1;1;
55591;PMS5003;41454;53.396;-1.510;2023-01-20T11:26:07;1;1;
55591;PMS5003;41454;53.396;-1.510;2023-01-20T11:28:47;1;1;
55591;PMS5003;41454;53.396;-1.510;2023-01-20T11:31:18;1;1;
55591;PMS5003;41454;53.396;-1.510;2023-01-20T11:33:54;1;1;
55591;PMS5003;41454;53.396;-1.510;2023-01-20T11:36:23;1;1;
55591;PMS5003;41454;53.396;-1.510;2023-01-20T11:38:51;3;2;
55591;PMS5003;41454;53.396;-1.510;2023-01-20T11:41:20;3;3;
55591;PMS5003;41454;53.396;-1.510;2023-01-20T11:43:49;2;2;
55591;PMS5003;41454;53.396;-1.510;2023-01-20T11:46:20;1;1;
55591;PMS5003;41454;53.396;-1.510;2023-01-20T11:49:04;4;4;
55591;PMS5003;41454;53.396;-1.510;2023-01-20T11:51:44;2;2;
55591;PMS5003;41454;53.396;-1.510;2023-01-20T11:54:14;2;2;
55591;PMS5003;41454;53.396;-1.510;2023-01-20T11:56:43;3;2;
55591;PMS5003;41454;53.396;-1.510;2023-01-20T11:59:17;2;2;
55591;PMS5003;41454;53.396;-1.510;2023-01-20T12:01:48;2;2;
55591;PMS5003;41454;53.396;-1.510;2023-01-20T12:04:22;3;3;
55591;PMS5003;41454;53.396;-1.510;2023-01-20T12:07:33;4;4;
55591;PMS5003;41454;53.396;-1.510;2023-01-20T12:10:10;1;1;
55591;PMS5003;41454;53.396;-1.510;2023-01-20T12:12:43;2;2;
55591;PMS5003;41454;53.396;-1.510;2023-01-20T12:15:15;1;1;
55591;PMS5003;41454;53.396;-1.510;2023-01-20T12:17:50;2;2;
55591;PMS5003;41454;53.396;-1.510;2023-01-20T12:20:22;1;1;
55591;PMS5003;41454;53.396;-1.510;2023-01-20T12:22:57;1;1;
55591;PMS5003;41454;53.396;-1.510;2023-01-20T12:25:30;2;2;
55591;PMS5003;41454;53.396;-1.510;2023-01-20T12:28:03;2;2;
55591;PMS5003;41454;53.396;-1.510;2023-01-20T12:30:45;4;3;
55591;PMS5003;41454;53.396;-1.510;2023-01-20T12:33:20;3;3;
55591;PMS5003;41454;53.396;-1.510;2023-01-20T12:35:58;2;2;
55591;PMS5003;41454;53.396;-1.510;2023-01-20T12:38:34;1;1;
55591;PMS5003;41454;53.396;-1.510;2023-01-20T12:41:11;3;3;
55591;PMS5003;41454;53.396;-1.510;2023-01-20T12:43:46;2;2;
55591;PMS5003;41454;53.396;-1.510;2023-01-20T12:46:24;2;2;
55591;PMS5003;41454;53.396;-1.510;2023-01-20T12:49:04;3;3;
55591;PMS5003;41454;53.396;-1.510;2023-01-20T12:51:49;4;4;
55591;PMS5003;41454;53.396;-1.510;2023-01-20T12:54:33;1;1;
55591;PMS5003;41454;53.396;-1.510;2023-01-20T12:57:18;3;3;
55591;PMS5003;41454;53.396;-1.510;2023-01-20T13:00:01;1;1;
55591;PMS5003;41454;53.396;-1.510;2023-01-20T13:02:46;2;2;
55591;PMS5003;41454;53.396;-1.510;2023-01-20T13:05:36;3;3;
55591;PMS5003;41454;53.396;-1.510;2023-01-20T13:08:19;1;1;
55591;PMS5003;41454;53.396;-1.510;2023-01-20T13:10:52;2;1;
55591;PMS5003;41454;53.396;-1.510;2023-01-20T13:13:32;1;1;
55591;PMS5003;41454;53.396;-1.510;2023-01-20T13:16:07;0;0;
55591;PMS5003;41454;53.396;-1.510;2023-01-20T13:18:40;1;1;
55591;PMS5003;41454;53.396;-1.510;2023-01-20T13:21:25;2;2;
55591;PMS5003;41454;53.396;-1.510;2023-01-20T13:23:52;1;1;
55591;PMS5003;41454;53.396;-1.510;2023-01-20T13:26:20;1;1;
55591;PMS5003;41454;53.396;-1.510;2023-01-20T13:28:49;2;1;
55591;PMS5003;41454;53.396;-1.510;2023-01-20T13:31:49;3;2;
55591;PMS5003;41454;53.396;-1.510;2023-01-20T13:34:33;7;6;
55591;PMS5003;41454;53.396;-1.510;2023-01-20T13:37:23;2;2;
55591;PMS5003;41454;53.396;-1.510;2023-01-20T13:39:54;2;2;
55591;PMS5003;41454;53.396;-1.510;2023-01-20T13:42:30;1;1;
55591;PMS5003;41454;53.396;-1.510;2023-01-20T13:45:15;2;2;
55591;PMS5003;41454;53.396;-1.510;2023-01-20T13:47:50;1;1;
55591;PMS5003;41454;53.396;-1.510;2023-01-20T13:50:20;2;2;
55591;PMS5003;41454;53.396;-1.510;2023-01-20T13:53:54;2;2;
55591;PMS5003;41454;53.396;-1.510;2023-01-20T13:57:38;1;1;
55591;PMS5003;41454;53.396;-1.510;2023-01-20T14:00:10;2;2;
55591;PMS5003;41454;53.396;-1.510;2023-01-20T14:00:15;2;2;
55591;PMS5003;41454;53.396;-1.510;2023-01-20T14:02:45;1;1;
55591;PMS5003;41454;53.396;-1.510;2023-01-20T14:05:30;2;2;
55591;PMS5003;41454;53.396;-1.510;2023-01-20T14:07:58;2;2;
55591;PMS5003;41454;53.396;-1.510;2023-01-20T14:10:25;2;2;
55591;PMS5003;41454;53.396;-1.510;2023-01-20T14:12:53;4;2;
55591;PMS5003;41454;53.396;-1.510;2023-01-20T14:15:21;2;2;
55591;PMS5003;41454;53.396;-1.510;2023-01-20T14:17:52;3;3;
55591;PMS5003;41454;53.396;-1.510;2023-01-20T14:20:19;1;1;
55591;PMS5003;41454;53.396;-1.510;2023-01-20T14:22:49;3;3;
55591;PMS5003;41454;53.396;-1.510;2023-01-20T14:25:18;2;1;
55591;PMS5003;41454;53.396;-1.510;2023-01-20T14:27:48;2;2;
55591;PMS5003;41454;53.396;-1.510;2023-01-20T14:30:19;2;2;
55591;PMS5003;41454;53.396;-1.510;2023-01-20T14:32:47;4;3;
55591;PMS5003;41454;53.396;-1.510;2023-01-20T14:35:15;4;4;
55591;PMS5003;41454;53.396;-1.510;2023-01-20T14:37:48;2;2;
55591;PMS5003;41454;53.396;-1.510;2023-01-20T14:40:20;3;3;
55591;PMS5003;41454;53.396;-1.510;2023-01-20T14:42:54;2;2;
55591;PMS5003;41454;53.396;-1.510;2023-01-20T14:45:23;2;2;
55591;PMS5003;41454;53.396;-1.510;2023-01-20T14:47:53;2;2;
55591;PMS5003;41454;53.396;-1.510;2023-01-20T14:50:22;2;2;
55591;PMS5003;41454;53.396;-1.510;2023-01-20T14:52:50;4;4;
55591;PMS5003;41454;53.396;-1.510;2023-01-20T14:55:26;6;6;
55591;PMS5003;41454;53.396;-1.510;2023-01-20T14:57:55;5;5;
55591;PMS5003;41454;53.396;-1.510;2023-01-20T15:00:24;4;3;
55591;PMS5003;41454;53.396;-1.510;2023-01-20T15:02:54;2;2;
55591;PMS5003;41454;53.396;-1.510;2023-01-20T15:05:30;3;3;
55591;PMS5003;41454;53.396;-1.510;2023-01-20T15:08:16;2;2;
55591;PMS5003;41454;53.396;-1.510;2023-01-20T15:10:46;3;3;
55591;PMS5003;41454;53.396;-1.510;2023-01-20T15:13:35;2;2;
55591;PMS5003;41454;53.396;-1.510;2023-01-20T15:16:10;5;4;
55591;PMS5003;41454;53.396;-1.510;2023-01-20T15:18:42;5;4;
55591;PMS5003;41454;53.396;-1.510;2023-01-20T15:21:11;5;4;
55591;PMS5003;41454;53.396;-1.510;2023-01-20T15:23:50;6;5;
55591;PMS5003;41454;53.396;-1.510;2023-01-20T15:26:22;4;4;
55591;PMS5003;41454;53.396;-1.510;2023-01-20T15:28:52;4;3;
55591;PMS5003;41454;53.396;-1.510;2023-01-20T15:31:20;3;2;
55591;PMS5003;41454;53.396;-1.510;2023-01-20T15:33:47;7;6;
55591;PMS5003;41454;53.396;-1.510;2023-01-20T15:36:18;10;7;
55591;PMS5003;41454;53.396;-1.510;2023-01-20T15:38:49;13;11;
55591;PMS5003;41454;53.396;-1.510;2023-01-20T15:41:16;11;9;
55591;PMS5003;41454;53.396;-1.510;2023-01-20T15:43:44;9;7;
55591;PMS5003;41454;53.396;-1.510;2023-01-20T15:46:12;7;5;
55591;PMS5003;41454;53.396;-1.510;2023-01-20T15:48:42;14;11;
55591;PMS5003;41454;53.396;-1.510;2023-01-20T15:51:11;7;5;
55591;PMS5003;41454;53.396;-1.510;2023-01-20T15:53:40;8;8;
55591;PMS5003;41454;53.396;-1.510;2023-01-20T15:56:09;10;8;
55591;PMS5003;41454;53.396;-1.510;2023-01-20T15:58:44;4;4;
55591;PMS5003;41454;53.396;-1.510;2023-01-20T16:01:12;36;36;
55591;PMS5003;41454;53.396;-1.510;2023-01-20T16:03:42;16;14;
55591;PMS5003;41454;53.396;-1.510;2023-01-20T16:06:09;21;21;
55591;PMS5003;41454;53.396;-1.510;2023-01-20T16:08:38;13;13;
55591;PMS5003;41454;53.396;-1.510;2023-01-20T16:11:06;25;25;
55591;PMS5003;41454;53.396;-1.510;2023-01-20T16:13:34;33;33;
55591;PMS5003;41454;53.396;-1.510;2023-01-20T16:16:01;28;28;
55591;PMS5003;41454;53.396;-1.510;2023-01-20T16:18:28;11;11;
55591;PMS5003;41454;53.396;-1.510;2023-01-20T16:20:56;8;8;
55591;PMS5003;41454;53.396;-1.510;2023-01-20T16:23:23;5;5;
55591;PMS5003;41454;53.396;-1.510;2023-01-20T16:25:50;5;5;
55591;PMS5003;41454;53.396;-1.510;2023-01-20T16:28:19;5;5;
55591;PMS5003;41454;53.396;-1.510;2023-01-20T16:30:47;10;9;
55591;PMS5003;41454;53.396;-1.510;2023-01-20T16:33:16;9;9;
55591;PMS5003;41454;53.396;-1.510;2023-01-20T16:35:45;7;7;
55591;PMS5003;41454;53.396;-1.510;2023-01-20T16:38:14;7;7;
55591;PMS5003;41454;53.396;-1.510;2023-01-20T16:40:45;7;4;
55591;PMS5003;41454;53.396;-1.510;2023-01-20T16:43:14;6;6;
55591;PMS5003;41454;53.396;-1.510;2023-01-20T16:45:42;6;5;
55591;PMS5003;41454;53.396;-1.510;2023-01-20T16:48:09;4;4;
55591;PMS5003;41454;53.396;-1.510;2023-01-20T16:50:37;6;6;
55591;PMS5003;41454;53.396;-1.510;2023-01-20T16:53:04;5;5;
55591;PMS5003;41454;53.396;-1.510;2023-01-20T16:55:32;9;8;